createdAt,value
2018-08-18T00:00:37.815Z,18.84
2018-08-18T00:03:07.172Z,18.83
2018-08-18T00:05:37.012Z,18.81
2018-08-18T00:08:07.379Z,18.87
2018-08-18T00:10:36.848Z,18.80
2018-08-18T00:13:08.988Z,18.78
2018-08-18T00:15:38.417Z,18.75
2018-08-18T00:18:07.500Z,18.63
2018-08-18T00:20:36.744Z,18.62
2018-08-18T00:23:07.622Z,18.57
2018-08-18T00:25:36.686Z,18.50
2018-08-18T00:28:16.598Z,18.51
2018-08-18T00:30:45.686Z,18.48
2018-08-18T00:33:14.786Z,18.49
2018-08-18T00:35:44.288Z,18.51
2018-08-18T00:38:13.559Z,18.53
2018-08-18T00:40:42.618Z,18.46
2018-08-18T00:43:11.960Z,18.46
2018-08-18T00:45:41.075Z,18.47
2018-08-18T00:48:10.254Z,18.41
2018-08-18T00:50:43.365Z,18.38
2018-08-18T00:53:14.790Z,18.35
2018-08-18T00:55:44.024Z,18.32
2018-08-18T00:58:17.640Z,18.29
2018-08-18T01:00:51.365Z,18.29
2018-08-18T01:03:20.521Z,18.27
2018-08-18T01:05:49.610Z,18.27
2018-08-18T01:08:19.311Z,18.25
2018-08-18T01:10:48.349Z,18.23
2018-08-18T01:13:17.442Z,18.19
2018-08-18T01:15:47.006Z,18.20
2018-08-18T01:18:16.148Z,18.16
2018-08-18T01:20:45.222Z,18.15
2018-08-18T01:23:14.582Z,18.12
2018-08-18T01:25:43.695Z,18.11
2018-08-18T01:28:12.799Z,18.08
2018-08-18T01:30:42.102Z,18.04
2018-08-18T01:33:11.183Z,18.05
2018-08-18T01:35:40.251Z,18.05
2018-08-18T01:38:09.592Z,18.04
2018-08-18T01:40:38.658Z,18.01
2018-08-18T01:43:08.484Z,18.01
2018-08-18T01:45:37.615Z,18.02
2018-08-18T01:48:07.753Z,18.00
2018-08-18T01:50:36.930Z,18.01
2018-08-18T01:53:07.683Z,18.01
2018-08-18T01:55:36.749Z,17.97
2018-08-18T01:58:07.851Z,17.96
2018-08-18T02:00:36.878Z,18.01
2018-08-18T02:03:08.368Z,18.04
2018-08-18T02:05:52.333Z,18.08
2018-08-18T02:08:24.645Z,18.10
2018-08-18T02:10:53.746Z,18.11
2018-08-18T02:13:23.572Z,18.07
2018-08-18T02:15:52.717Z,18.04
2018-08-18T02:18:21.819Z,18.04
2018-08-18T02:20:51.314Z,18.01
2018-08-18T02:23:20.427Z,17.97
2018-08-18T02:25:49.503Z,17.92
2018-08-18T02:28:27.220Z,17.90
2018-08-18T02:30:56.323Z,17.87
2018-08-18T02:33:25.377Z,17.85
2018-08-18T02:35:54.628Z,17.80
2018-08-18T02:38:23.937Z,17.78
2018-08-18T02:40:53.296Z,17.78
2018-08-18T02:43:24.678Z,17.79
2018-08-18T02:45:53.959Z,17.74
2018-08-18T02:48:23.458Z,17.69
2018-08-18T02:50:52.804Z,17.67
2018-08-18T02:53:26.970Z,17.66
2018-08-18T02:55:56.718Z,17.65
2018-08-18T02:58:25.939Z,17.60
2018-08-18T03:00:55.497Z,17.51
2018-08-18T03:03:25.160Z,17.42
2018-08-18T03:05:57.184Z,17.31
2018-08-18T03:08:26.279Z,17.27
2018-08-18T03:10:55.490Z,17.20
2018-08-18T03:13:27.268Z,17.16
2018-08-18T03:15:57.799Z,17.10
2018-08-18T03:18:54.013Z,17.06
2018-08-18T03:21:29.266Z,17.03
2018-08-18T03:24:11.197Z,17.02
2018-08-18T03:26:46.310Z,16.97
2018-08-18T03:29:16.492Z,16.93
2018-08-18T03:31:46.664Z,16.90
2018-08-18T03:34:16.405Z,16.82
2018-08-18T03:36:49.142Z,16.80
2018-08-18T03:39:29.879Z,16.71
2018-08-18T03:42:04.883Z,16.63
2018-08-18T03:44:40.239Z,16.58
2018-08-18T03:47:09.417Z,16.54
2018-08-18T03:49:38.532Z,16.52
2018-08-18T03:52:08.020Z,16.49
2018-08-18T03:54:37.137Z,16.44
2018-08-18T03:57:07.855Z,16.41
2018-08-18T03:59:36.928Z,16.40
2018-08-18T04:02:07.469Z,16.40
2018-08-18T04:04:37.530Z,16.39
2018-08-18T04:07:09.072Z,16.38
2018-08-18T04:09:39.322Z,16.36
2018-08-18T04:12:09.984Z,16.31
2018-08-18T04:14:41.339Z,16.33
2018-08-18T04:17:21.734Z,16.34
2018-08-18T04:19:51.742Z,16.35
2018-08-18T04:22:22.374Z,16.36
2018-08-18T04:24:51.886Z,16.37
2018-08-18T04:27:35.356Z,16.33
2018-08-18T04:30:05.950Z,16.32
2018-08-18T04:32:48.007Z,16.29
2018-08-18T04:35:17.712Z,16.26
2018-08-18T04:37:46.703Z,16.26
2018-08-18T04:40:15.788Z,16.26
2018-08-18T04:42:45.023Z,16.25
2018-08-18T04:45:15.904Z,16.25
2018-08-18T04:47:45.355Z,16.22
2018-08-18T04:50:14.600Z,16.19
2018-08-18T04:52:43.732Z,16.16
2018-08-18T04:55:14.504Z,16.16
2018-08-18T04:57:43.598Z,16.18
2018-08-18T05:00:13.826Z,16.18
2018-08-18T05:02:59.786Z,16.20
2018-08-18T05:05:30.168Z,16.21
2018-08-18T05:08:01.368Z,16.24
2018-08-18T05:10:30.880Z,16.23
2018-08-18T05:12:59.987Z,16.25
2018-08-18T05:15:29.317Z,16.24
2018-08-18T05:17:58.440Z,16.21
2018-08-18T05:20:28.185Z,16.22
2018-08-18T05:23:12.933Z,16.22
2018-08-18T05:25:42.095Z,16.26
2018-08-18T05:28:11.147Z,16.27
2018-08-18T05:30:40.409Z,16.18
2018-08-18T05:33:10.582Z,16.09
2018-08-18T05:35:42.974Z,16.08
2018-08-18T05:38:12.094Z,16.04
2018-08-18T05:40:41.160Z,16.04
2018-08-18T05:43:11.845Z,16.05
2018-08-18T05:45:40.952Z,16.08
2018-08-18T05:48:10.257Z,16.09
2018-08-18T05:50:39.660Z,16.11
2018-08-18T05:53:33.029Z,16.11
2018-08-18T05:56:03.327Z,16.16
2018-08-18T05:58:49.108Z,16.16
2018-08-18T06:01:27.902Z,16.20
2018-08-18T06:04:04.175Z,16.26
2018-08-18T06:06:33.816Z,16.32
2018-08-18T06:09:02.891Z,16.33
2018-08-18T06:11:32.124Z,16.36
2018-08-18T06:14:01.220Z,16.39
2018-08-18T06:16:30.317Z,16.51
2018-08-18T06:18:59.810Z,16.58
2018-08-18T06:21:28.930Z,16.65
2018-08-18T06:23:58.500Z,16.68
2018-08-18T06:26:28.400Z,16.75
2018-08-18T06:28:58.429Z,16.76
2018-08-18T06:31:27.531Z,16.77
2018-08-18T06:33:56.658Z,16.79
2018-08-18T06:36:26.420Z,16.82
2018-08-18T06:38:55.540Z,16.89
2018-08-18T06:41:24.736Z,17.01
2018-08-18T06:43:54.148Z,17.02
2018-08-18T06:46:23.219Z,17.10
2018-08-18T06:48:52.472Z,17.19
2018-08-18T06:51:21.929Z,17.24
2018-08-18T06:53:51.006Z,17.31
2018-08-18T06:56:20.125Z,17.37
2018-08-18T06:58:49.921Z,17.42
2018-08-18T07:01:18.996Z,17.49
2018-08-18T07:03:48.533Z,17.54
2018-08-18T07:06:18.223Z,17.66
2018-08-18T07:08:54.423Z,17.68
2018-08-18T07:11:31.236Z,17.75
2018-08-18T07:14:01.928Z,17.78
2018-08-18T07:16:30.985Z,17.85
2018-08-18T07:19:00.116Z,17.93
2018-08-18T07:21:29.408Z,17.99
2018-08-18T07:23:58.622Z,18.02
2018-08-18T07:26:28.114Z,18.01
2018-08-18T07:28:57.304Z,18.06
2018-08-18T07:31:26.702Z,18.12
2018-08-18T07:33:55.820Z,18.20
2018-08-18T07:36:24.945Z,18.29
2018-08-18T07:38:54.438Z,18.35
2018-08-18T07:41:23.545Z,18.56
2018-08-18T07:43:52.618Z,18.59
2018-08-18T07:46:22.507Z,18.66
2018-08-18T07:48:51.818Z,18.67
2018-08-18T07:51:20.915Z,18.73
2018-08-18T07:53:49.990Z,18.75
2018-08-18T07:56:19.258Z,18.78
2018-08-18T07:58:48.322Z,18.77
2018-08-18T08:01:17.402Z,18.77
2018-08-18T08:03:46.694Z,18.80
2018-08-18T08:06:15.792Z,18.87
2018-08-18T08:08:49.578Z,18.98
2018-08-18T08:11:18.678Z,19.02
2018-08-18T08:13:47.825Z,19.08
2018-08-18T08:16:17.089Z,19.13
2018-08-18T08:18:46.200Z,19.23
2018-08-18T08:21:15.589Z,19.33
2018-08-18T08:23:44.701Z,19.32
2018-08-18T08:26:13.818Z,19.37
2018-08-18T08:28:43.275Z,19.42
2018-08-18T08:31:12.350Z,19.45
2018-08-18T08:33:41.513Z,19.57
2018-08-18T08:36:17.322Z,19.72
2018-08-18T08:38:51.377Z,19.85
2018-08-18T08:41:23.076Z,19.90
2018-08-18T08:43:52.117Z,19.97
2018-08-18T08:46:21.499Z,20.00
2018-08-18T08:48:55.680Z,20.06
2018-08-18T08:51:25.512Z,20.16
2018-08-18T08:53:56.023Z,20.31
2018-08-18T08:56:35.762Z,20.30
2018-08-18T08:59:05.124Z,20.37
2018-08-18T09:01:34.813Z,20.42
2018-08-18T09:04:04.767Z,20.43
2018-08-18T09:06:35.438Z,20.53
2018-08-18T09:09:06.931Z,20.65
2018-08-18T09:11:36.266Z,20.64
2018-08-18T09:14:07.574Z,20.70
2018-08-18T09:16:36.948Z,20.76
2018-08-18T09:19:06.043Z,20.85
2018-08-18T09:21:44.147Z,20.89
2018-08-18T09:24:13.579Z,20.86
2018-08-18T09:26:47.986Z,20.83
2018-08-18T09:29:17.059Z,20.89
2018-08-18T09:31:46.527Z,20.88
2018-08-18T09:34:16.376Z,21.02
2018-08-18T09:36:46.476Z,20.98
2018-08-18T09:39:33.583Z,21.06
2018-08-18T09:42:03.566Z,21.00
2018-08-18T09:44:34.931Z,21.05
2018-08-18T09:47:04.373Z,21.06
2018-08-18T09:49:33.616Z,21.20
2018-08-18T09:52:02.805Z,21.42
2018-08-18T09:54:32.092Z,21.38
2018-08-18T09:57:01.313Z,21.42
2018-08-18T09:59:31.336Z,21.51
2018-08-18T10:02:00.696Z,21.56
2018-08-18T10:04:29.814Z,21.53
2018-08-18T10:06:58.919Z,21.58
2018-08-18T10:09:28.280Z,21.63
2018-08-18T10:11:57.589Z,21.67
2018-08-18T10:14:26.702Z,21.76
2018-08-18T10:16:55.817Z,21.77
2018-08-18T10:19:25.027Z,21.81
2018-08-18T10:21:54.379Z,21.80
2018-08-18T10:24:23.766Z,21.81
2018-08-18T10:26:58.225Z,21.74
2018-08-18T10:29:27.887Z,21.76
2018-08-18T10:31:57.988Z,21.87
2018-08-18T10:34:28.471Z,22.09
2018-08-18T10:37:02.827Z,22.11
2018-08-18T10:39:32.140Z,22.11
2018-08-18T10:42:22.997Z,22.05
2018-08-18T10:44:57.679Z,22.32
2018-08-18T10:47:26.790Z,22.38
2018-08-18T10:50:07.564Z,22.53
2018-08-18T10:52:48.031Z,22.65
2018-08-18T10:55:18.458Z,22.52
2018-08-18T10:57:59.293Z,22.58
2018-08-18T11:00:29.954Z,22.58
2018-08-18T11:03:06.442Z,22.61
2018-08-18T11:05:36.037Z,22.63
2018-08-18T11:08:08.949Z,22.55
2018-08-18T11:10:40.749Z,22.68
2018-08-18T11:13:09.864Z,22.72
2018-08-18T11:15:39.146Z,22.75
2018-08-18T11:18:08.660Z,22.76
2018-08-18T11:20:37.734Z,22.72
2018-08-18T11:23:14.487Z,22.76
2018-08-18T11:25:47.884Z,22.88
2018-08-18T11:28:18.127Z,23.02
2018-08-18T11:30:47.272Z,22.96
2018-08-18T11:33:33.017Z,23.03
2018-08-18T11:36:02.330Z,23.00
2018-08-18T11:38:31.898Z,23.16
2018-08-18T11:41:01.780Z,23.17
2018-08-18T11:43:33.541Z,23.19
2018-08-18T11:46:02.738Z,23.25
2018-08-18T11:48:32.330Z,23.26
2018-08-18T11:51:01.822Z,23.36
2018-08-18T11:53:30.886Z,23.44
2018-08-18T11:55:59.982Z,23.43
2018-08-18T11:58:29.530Z,23.52
2018-08-18T12:00:59.801Z,23.42
2018-08-18T12:03:32.346Z,23.45
2018-08-18T12:06:04.800Z,23.61
2018-08-18T12:08:35.932Z,23.80
2018-08-18T12:11:06.925Z,24.72
2018-08-18T12:13:41.053Z,25.36
2018-08-18T12:16:16.070Z,25.71
2018-08-18T12:18:46.187Z,26.06
2018-08-18T12:21:15.692Z,26.41
2018-08-18T12:23:46.551Z,26.30
2018-08-18T12:26:22.126Z,26.38
2018-08-18T12:28:53.903Z,26.75
2018-08-18T12:31:24.467Z,26.82
2018-08-18T12:33:54.132Z,26.97
2018-08-18T12:36:23.537Z,27.08
2018-08-18T12:38:56.216Z,27.20
2018-08-18T12:41:25.309Z,27.48
2018-08-18T12:43:56.370Z,27.79
2018-08-18T12:46:30.692Z,28.09
2018-08-18T12:49:00.250Z,27.49
2018-08-18T12:51:29.336Z,27.25
2018-08-18T12:53:58.469Z,27.60
2018-08-18T12:56:28.701Z,28.37
2018-08-18T12:58:57.806Z,28.02
2018-08-18T13:01:41.453Z,28.16
2018-08-18T13:04:13.101Z,28.43
2018-08-18T13:06:44.716Z,28.19
2018-08-18T13:09:15.026Z,28.23
2018-08-18T13:11:45.568Z,28.29
2018-08-18T13:14:22.288Z,28.61
2018-08-18T13:16:52.082Z,29.27
2018-08-18T13:19:23.306Z,29.45
2018-08-18T13:21:53.174Z,29.42
2018-08-18T13:24:22.545Z,29.00
2018-08-18T13:26:51.724Z,28.99
2018-08-18T13:29:21.246Z,29.48
2018-08-18T13:31:50.324Z,29.56
2018-08-18T13:34:19.549Z,29.64
2018-08-18T13:36:48.778Z,29.36
2018-08-18T13:39:19.094Z,29.50
2018-08-18T13:41:49.489Z,29.45
2018-08-18T13:44:27.160Z,29.57
2018-08-18T13:46:56.485Z,29.60
2018-08-18T13:49:26.436Z,29.41
2018-08-18T13:51:55.584Z,29.89
2018-08-18T13:54:25.395Z,29.69
2018-08-18T13:56:54.469Z,29.91
2018-08-18T14:02:16.463Z,30.68
2018-08-18T14:04:45.560Z,29.61
2018-08-18T14:07:14.856Z,28.65
2018-08-18T14:09:48.722Z,28.79
2018-08-18T14:12:18.671Z,29.58
2018-08-18T14:14:48.499Z,29.51
2018-08-18T14:17:19.994Z,29.58
2018-08-18T14:19:50.015Z,29.36
2018-08-18T14:22:20.130Z,29.73
2018-08-18T14:24:49.196Z,30.12
2018-08-18T14:27:21.091Z,30.34
2018-08-18T14:29:50.213Z,30.41
2018-08-18T14:32:25.414Z,30.28
2018-08-18T14:34:59.395Z,30.56
2018-08-18T14:37:28.748Z,30.38
2018-08-18T14:39:57.934Z,30.84
2018-08-18T14:42:26.967Z,30.85
2018-08-18T14:44:56.684Z,30.17
2018-08-18T14:47:25.865Z,30.09
2018-08-18T14:50:10.763Z,30.50
2018-08-18T14:52:40.067Z,30.06
2018-08-18T14:55:09.286Z,30.13
2018-08-18T14:57:46.296Z,30.07
2018-08-18T15:00:15.369Z,30.30
2018-08-18T15:02:44.454Z,30.21
2018-08-18T15:05:13.722Z,29.95
2018-08-18T15:07:47.455Z,29.34
2018-08-18T15:10:31.493Z,29.48
2018-08-18T15:13:01.295Z,29.31
2018-08-18T15:15:31.356Z,28.89
2018-08-18T15:18:02.503Z,28.52
2018-08-18T15:20:33.856Z,28.44
2018-08-18T15:23:03.804Z,28.15
2018-08-18T15:25:34.096Z,27.99
2018-08-18T15:28:04.361Z,28.14
2018-08-18T15:30:34.329Z,28.05
2018-08-18T15:33:03.448Z,27.90
2018-08-18T15:35:35.989Z,27.74
2018-08-18T15:38:06.242Z,27.39
2018-08-18T15:40:35.323Z,27.41
2018-08-18T15:43:04.742Z,27.42
2018-08-18T15:45:42.598Z,27.34
2018-08-18T15:48:11.697Z,27.33
2018-08-18T15:50:40.744Z,27.32
2018-08-18T15:53:10.137Z,27.20
2018-08-18T15:55:39.432Z,27.23
2018-08-18T15:58:08.528Z,27.13
2018-08-18T16:00:38.012Z,26.93
2018-08-18T16:03:07.111Z,26.97
2018-08-18T16:05:36.462Z,26.89
2018-08-18T16:08:05.699Z,26.62
2018-08-18T16:10:34.921Z,26.51
2018-08-18T16:13:03.988Z,26.47
2018-08-18T16:15:33.058Z,26.43
2018-08-18T16:18:02.500Z,26.27
2018-08-18T16:20:32.967Z,26.28
2018-08-18T16:23:03.251Z,26.24
2018-08-18T16:25:36.782Z,26.19
2018-08-18T16:28:06.826Z,26.06
2018-08-18T16:30:36.450Z,25.98
2018-08-18T16:33:19.099Z,25.92
2018-08-18T16:35:48.744Z,25.83
2018-08-18T16:38:17.831Z,25.79
2018-08-18T16:40:46.942Z,25.67
2018-08-18T16:43:17.091Z,25.58
2018-08-18T16:45:46.180Z,25.39
2018-08-18T16:48:15.246Z,25.35
2018-08-18T16:50:44.615Z,25.33
2018-08-18T16:53:14.546Z,25.29
2018-08-18T16:55:45.257Z,25.26
2018-08-18T16:58:14.488Z,25.23
2018-08-18T17:00:56.900Z,25.17
2018-08-18T17:03:30.714Z,25.12
2018-08-18T17:06:01.071Z,25.09
2018-08-18T17:08:30.916Z,25.13
2018-08-18T17:11:00.315Z,25.12
2018-08-18T17:13:32.567Z,25.08
2018-08-18T17:16:02.053Z,25.00
2018-08-18T17:18:31.183Z,25.00
2018-08-18T17:21:02.619Z,25.04
2018-08-18T17:23:33.376Z,25.02
2018-08-18T17:26:02.853Z,24.98
2018-08-18T17:28:32.728Z,24.98
2018-08-18T17:31:02.413Z,24.88
2018-08-18T17:33:32.498Z,24.83
2018-08-18T17:36:01.724Z,24.82
2018-08-18T17:38:30.826Z,24.73
2018-08-18T17:41:00.098Z,24.71
2018-08-18T17:43:30.112Z,24.80
2018-08-18T17:46:00.735Z,24.61
2018-08-18T17:48:33.603Z,24.62
2018-08-18T17:51:02.721Z,24.58
2018-08-18T17:53:31.911Z,24.53
2018-08-18T17:56:05.098Z,24.41
2018-08-18T17:58:34.908Z,24.36
2018-08-18T18:01:06.276Z,24.33
2018-08-18T18:03:35.998Z,24.29
2018-08-18T18:06:05.154Z,24.24
2018-08-18T18:08:34.289Z,24.27
2018-08-18T18:11:03.784Z,24.17
2018-08-18T18:13:34.941Z,24.13
2018-08-18T18:16:10.000Z,24.11
2018-08-18T18:18:44.900Z,24.00
2018-08-18T18:21:14.277Z,23.93
2018-08-18T18:23:43.817Z,23.89
2018-08-18T18:28:41.222Z,23.71
2018-08-18T18:31:10.290Z,23.62
2018-08-18T18:33:40.007Z,23.58
2018-08-18T18:36:09.093Z,23.48
2018-08-18T18:38:53.093Z,23.43
2018-08-18T18:41:22.183Z,23.37
2018-08-18T18:43:59.085Z,23.33
2018-08-18T18:46:28.343Z,23.29
2018-08-18T18:48:57.688Z,23.32
2018-08-18T18:51:27.219Z,23.27
2018-08-18T18:53:57.614Z,23.23
2018-08-18T18:56:26.963Z,23.13
2018-08-18T18:58:56.111Z,23.11
2018-08-18T19:01:27.166Z,23.08
2018-08-18T19:03:56.262Z,22.99
2018-08-18T19:06:25.390Z,23.00
2018-08-18T19:09:02.140Z,22.93
2018-08-18T19:11:31.366Z,22.95
2018-08-18T19:14:00.731Z,22.91
2018-08-18T19:16:29.791Z,22.92
2018-08-18T19:18:58.848Z,22.75
2018-08-18T19:21:30.845Z,22.75
2018-08-18T19:24:00.603Z,22.70
2018-08-18T19:26:44.752Z,22.65
2018-08-18T19:29:14.029Z,22.62
2018-08-18T19:31:43.149Z,22.62
2018-08-18T19:34:15.833Z,22.57
2018-08-18T19:36:56.312Z,22.51
2018-08-18T19:39:27.429Z,22.48
2018-08-18T19:42:06.864Z,22.43
2018-08-18T19:44:48.711Z,22.39
2018-08-18T19:47:26.221Z,22.32
2018-08-18T19:49:55.500Z,22.33
2018-08-18T19:52:24.808Z,22.26
2018-08-18T19:54:54.044Z,22.20
2018-08-18T19:57:29.026Z,22.15
2018-08-18T20:00:07.932Z,22.15
2018-08-18T20:02:52.452Z,22.12
2018-08-18T20:05:22.704Z,22.18
2018-08-18T20:07:52.164Z,22.15
2018-08-18T20:10:21.238Z,22.08
2018-08-18T20:12:50.482Z,22.02
2018-08-18T20:15:19.604Z,22.02
2018-08-18T20:17:48.876Z,21.98
2018-08-18T20:20:23.616Z,21.90
2018-08-18T20:22:53.195Z,21.93
2018-08-18T20:25:22.256Z,21.97
2018-08-18T20:27:51.507Z,21.92
2018-08-18T20:30:20.590Z,21.88
2018-08-18T20:32:49.901Z,21.90
2018-08-18T20:35:19.009Z,21.86
2018-08-18T20:37:48.199Z,21.84
2018-08-18T20:40:17.264Z,21.79
2018-08-18T20:42:46.340Z,21.76
2018-08-18T20:45:15.572Z,21.73
2018-08-18T20:47:45.363Z,21.71
2018-08-18T20:50:20.336Z,21.69
2018-08-18T20:52:49.556Z,21.70
2018-08-18T20:55:18.622Z,21.65
2018-08-18T20:57:48.621Z,21.70
2018-08-18T21:00:18.485Z,21.66
2018-08-18T21:02:47.502Z,21.66
2018-08-18T21:05:16.922Z,21.64
2018-08-18T21:07:46.113Z,21.63
2018-08-18T21:10:15.547Z,21.64
2018-08-18T21:12:47.145Z,21.64
2018-08-18T21:15:17.395Z,21.61
2018-08-18T21:17:46.583Z,21.57
2018-08-18T21:20:17.975Z,21.54
2018-08-18T21:22:47.053Z,21.51
2018-08-18T21:25:24.636Z,21.46
2018-08-18T21:27:53.777Z,21.47
2018-08-18T21:30:22.922Z,21.45
2018-08-18T21:32:52.340Z,21.43
2018-08-18T21:35:21.432Z,21.46
2018-08-18T21:37:51.569Z,21.44
2018-08-18T21:40:20.975Z,21.41
2018-08-18T21:42:50.065Z,21.41
2018-08-18T21:45:19.228Z,21.42
2018-08-18T21:47:48.645Z,21.41
2018-08-18T21:50:17.715Z,21.40
2018-08-18T21:52:46.812Z,21.37
2018-08-18T21:55:16.098Z,21.32
2018-08-18T21:57:56.054Z,21.31
2018-08-18T22:00:30.515Z,21.30
2018-08-18T22:02:59.780Z,21.34
2018-08-18T22:05:31.894Z,21.29
2018-08-18T22:08:01.156Z,21.26
2018-08-18T22:10:38.068Z,21.23
2018-08-18T22:13:07.354Z,21.20
2018-08-18T22:15:36.455Z,21.20
2018-08-18T22:18:05.711Z,21.19
2018-08-18T22:20:35.477Z,21.17
2018-08-18T22:23:07.241Z,21.16
2018-08-18T22:25:37.053Z,21.14
2018-08-18T22:28:06.250Z,21.17
2018-08-18T22:30:35.423Z,21.15
2018-08-18T22:33:04.782Z,21.10
2018-08-18T22:35:33.912Z,21.04
2018-08-18T22:38:03.000Z,21.01
2018-08-18T22:40:33.537Z,21.02
2018-08-18T22:43:02.596Z,20.95
2018-08-18T22:45:31.759Z,20.99
2018-08-18T22:48:01.334Z,20.94
2018-08-18T22:50:30.498Z,20.91
2018-08-18T22:52:59.587Z,20.86
2018-08-18T22:55:31.920Z,20.83
2018-08-18T22:58:02.062Z,20.78
2018-08-18T23:00:34.210Z,20.80
2018-08-18T23:03:03.416Z,20.77
2018-08-18T23:05:32.493Z,20.74
2018-08-18T23:08:01.816Z,20.74
2018-08-18T23:10:32.211Z,20.70
2018-08-18T23:13:02.869Z,20.71
2018-08-18T23:15:31.981Z,20.67
2018-08-18T23:18:01.353Z,20.66
2018-08-18T23:20:30.696Z,20.68
2018-08-18T23:23:00.922Z,20.67
2018-08-18T23:25:31.483Z,20.57
2018-08-18T23:28:00.580Z,20.58
2018-08-18T23:30:37.827Z,20.54
2018-08-18T23:33:08.558Z,20.54
2018-08-18T23:35:37.984Z,20.49
2018-08-18T23:38:07.146Z,20.46
2018-08-18T23:40:36.939Z,20.44
2018-08-18T23:43:06.247Z,20.42
2018-08-18T23:45:41.072Z,20.39
2018-08-18T23:48:12.255Z,20.37
2018-08-18T23:50:42.917Z,20.34
2018-08-18T23:53:13.805Z,20.30
2018-08-18T23:55:50.245Z,20.27
2018-08-18T23:58:21.708Z,20.21
